createdAt,value
2023-04-25T00:00:23.535Z,312
2023-04-25T00:00:55.077Z,312
2023-04-25T00:01:27.129Z,312
2023-04-25T00:01:59.077Z,318
2023-04-25T00:02:31.046Z,318
2023-04-25T00:03:03.521Z,318
2023-04-25T00:03:35.145Z,314
2023-04-25T00:04:07.437Z,311
2023-04-25T00:04:39.492Z,305
2023-04-25T00:04:55.319Z,303
2023-04-25T00:05:27.218Z,303
2023-04-25T00:05:43.049Z,303
2023-04-25T00:06:14.835Z,303
2023-04-25T00:06:46.769Z,303
2023-04-25T00:07:18.712Z,303
2023-04-25T00:07:50.859Z,303
2023-04-25T00:08:22.905Z,303
2023-04-25T00:08:54.643Z,306
2023-04-25T00:09:10.956Z,303
2023-04-25T00:09:42.550Z,303
2023-04-25T00:10:27.301Z,302
2023-04-25T00:10:58.752Z,302
2023-04-25T00:11:30.484Z,302
2023-04-25T00:12:03.379Z,303
2023-04-25T00:12:34.533Z,303
2023-04-25T00:13:06.612Z,303
2023-04-25T00:13:38.423Z,306
2023-04-25T00:13:54.613Z,314
2023-04-25T00:14:38.452Z,314
2023-04-25T00:15:11.983Z,314
2023-04-25T00:15:42.720Z,314
2023-04-25T00:16:14.367Z,316
2023-04-25T00:16:46.541Z,338
2023-04-25T00:17:18.293Z,337
2023-04-25T00:17:50.686Z,337
2023-04-25T00:18:22.376Z,337
2023-04-25T00:18:54.288Z,337
2023-04-25T00:19:26.573Z,337
2023-04-25T00:19:58.379Z,337
2023-04-25T00:20:30.352Z,337
2023-04-25T00:21:02.582Z,337
2023-04-25T00:21:34.244Z,337
2023-04-25T00:22:06.323Z,336
2023-04-25T00:22:38.130Z,336
2023-04-25T00:22:54.188Z,336
2023-04-25T00:23:26.016Z,336
2023-04-25T00:23:42.167Z,336
2023-04-25T00:24:14.082Z,336
2023-04-25T00:24:45.959Z,337
2023-04-25T00:25:18.288Z,337
2023-04-25T00:25:50.211Z,337
2023-04-25T00:26:22.134Z,336
2023-04-25T00:26:54.022Z,336
2023-04-25T00:27:10.202Z,336
2023-04-25T00:27:41.873Z,336
2023-04-25T00:28:26.037Z,303
2023-04-25T00:28:57.982Z,294
2023-04-25T00:29:30.054Z,265
2023-04-25T00:30:06.006Z,266
2023-04-25T00:30:33.760Z,275
2023-04-25T00:31:05.852Z,295
2023-04-25T00:31:37.840Z,311
2023-04-25T00:31:54.046Z,312
2023-04-25T00:32:38.054Z,311
2023-04-25T00:33:09.828Z,312
2023-04-25T00:33:41.762Z,325
2023-04-25T00:34:13.573Z,328
2023-04-25T00:34:45.569Z,337
2023-04-25T00:35:19.172Z,337
2023-04-25T00:35:49.629Z,336
2023-04-25T00:36:21.501Z,337
2023-04-25T00:36:53.537Z,317
2023-04-25T00:37:09.638Z,319
2023-04-25T00:37:53.614Z,320
2023-04-25T00:38:25.724Z,309
2023-04-25T00:38:57.405Z,290
2023-04-25T00:39:29.465Z,285
2023-04-25T00:40:02.130Z,294
2023-04-25T00:40:33.525Z,293
2023-04-25T00:41:05.335Z,293
2023-04-25T00:41:37.340Z,293
2023-04-25T00:41:53.658Z,293
2023-04-25T00:42:25.283Z,323
2023-04-25T00:42:41.402Z,323
2023-04-25T00:43:13.137Z,315
2023-04-25T00:43:45.223Z,294
2023-04-25T00:44:17.270Z,315
2023-04-25T00:44:49.577Z,303
2023-04-25T00:45:21.574Z,299
2023-04-25T00:45:53.350Z,303
2023-04-25T00:46:09.429Z,298
2023-04-25T00:46:41.242Z,296
2023-04-25T00:47:25.506Z,292
2023-04-25T00:47:57.171Z,292
2023-04-25T00:48:29.063Z,291
2023-04-25T00:49:01.144Z,291
2023-04-25T00:49:33.146Z,291
2023-04-25T00:50:05.819Z,291
2023-04-25T00:50:36.928Z,291
2023-04-25T00:50:53.506Z,291
2023-04-25T00:51:37.046Z,292
2023-04-25T00:52:09.029Z,293
2023-04-25T00:52:40.899Z,293
2023-04-25T00:53:12.771Z,293
2023-04-25T00:53:44.801Z,293
2023-04-25T00:54:16.800Z,293
2023-04-25T00:54:48.560Z,298
2023-04-25T00:55:21.081Z,298
2023-04-25T00:55:52.904Z,298
2023-04-25T00:56:24.772Z,298
2023-04-25T00:56:56.797Z,298
2023-04-25T00:57:28.681Z,297
2023-04-25T00:58:00.799Z,297
2023-04-25T00:58:32.759Z,297
2023-04-25T00:59:04.811Z,297
2023-04-25T00:59:36.515Z,297
2023-04-25T00:59:52.821Z,297
2023-04-25T01:00:24.834Z,320
2023-04-25T01:00:40.641Z,321
2023-04-25T01:01:12.450Z,322
2023-04-25T01:01:45.257Z,321
2023-04-25T01:02:16.601Z,321
2023-04-25T01:02:48.546Z,321
2023-04-25T01:03:20.843Z,315
2023-04-25T01:03:52.847Z,302
2023-04-25T01:04:08.576Z,302
2023-04-25T01:04:40.400Z,310
2023-04-25T01:05:24.746Z,314
2023-04-25T01:05:56.597Z,314
2023-04-25T01:06:28.395Z,311
2023-04-25T01:07:00.455Z,309
2023-04-25T01:07:32.437Z,309
2023-04-25T01:08:04.518Z,308
2023-04-25T01:08:20.555Z,308
2023-04-25T01:08:52.442Z,306
2023-04-25T01:09:36.224Z,313
2023-04-25T01:10:08.499Z,312
2023-04-25T01:10:39.974Z,312
2023-04-25T01:11:12.071Z,311
2023-04-25T01:11:44.182Z,301
2023-04-25T01:12:16.063Z,298
2023-04-25T01:12:47.852Z,298
2023-04-25T01:13:20.110Z,298
2023-04-25T01:13:52.435Z,298
2023-04-25T01:14:24.067Z,298
2023-04-25T01:14:56.013Z,298
2023-04-25T01:15:28.645Z,298
2023-04-25T01:16:00.007Z,298
2023-04-25T01:16:32.020Z,298
2023-04-25T01:17:04.110Z,298
2023-04-25T01:17:35.733Z,298
2023-04-25T01:17:52.051Z,298
2023-04-25T01:18:23.854Z,298
2023-04-25T01:18:39.874Z,298
2023-04-25T01:19:11.755Z,298
2023-04-25T01:19:43.773Z,298
2023-04-25T01:20:16.066Z,298
2023-04-25T01:20:47.729Z,300
2023-04-25T01:21:19.938Z,297
2023-04-25T01:21:51.615Z,303
2023-04-25T01:22:07.824Z,318
2023-04-25T01:22:39.857Z,316
2023-04-25T01:23:23.768Z,300
2023-04-25T01:23:55.606Z,298
2023-04-25T01:24:27.684Z,294
2023-04-25T01:24:59.648Z,295
2023-04-25T01:25:31.918Z,295
2023-04-25T01:26:04.127Z,295
2023-04-25T01:26:35.461Z,295
2023-04-25T01:26:51.647Z,295
2023-04-25T01:27:35.403Z,295
2023-04-25T01:28:07.575Z,295
2023-04-25T01:28:39.784Z,295
2023-04-25T01:29:11.420Z,302
2023-04-25T01:29:43.354Z,302
2023-04-25T01:30:16.509Z,302
2023-04-25T01:30:47.128Z,302
2023-04-25T01:31:19.304Z,302
2023-04-25T01:31:51.261Z,301
2023-04-25T01:32:23.328Z,301
2023-04-25T01:32:55.174Z,302
2023-04-25T01:33:27.268Z,303
2023-04-25T01:33:59.340Z,301
2023-04-25T01:34:31.212Z,298
2023-04-25T01:35:03.832Z,291
2023-04-25T01:35:35.115Z,316
2023-04-25T01:36:07.023Z,319
2023-04-25T01:36:39.166Z,273
2023-04-25T01:37:11.162Z,288
2023-04-25T01:37:42.998Z,285
2023-04-25T01:38:15.062Z,285
2023-04-25T01:38:47.479Z,290
2023-04-25T01:39:18.921Z,302
2023-04-25T01:39:51.024Z,288
2023-04-25T01:40:07.251Z,288
2023-04-25T01:40:38.830Z,328
2023-04-25T01:41:24.209Z,335
2023-04-25T01:41:55.727Z,311
2023-04-25T01:42:27.018Z,322
2023-04-25T01:42:58.847Z,307
2023-04-25T01:43:30.827Z,275
2023-04-25T01:44:05.932Z,282
2023-04-25T01:44:34.612Z,294
2023-04-25T01:45:08.247Z,331
2023-04-25T01:45:38.805Z,356
2023-04-25T01:46:10.590Z,332
2023-04-25T01:46:42.625Z,344
2023-04-25T01:47:14.622Z,267
2023-04-25T01:47:46.707Z,298
2023-04-25T01:48:18.473Z,239
2023-04-25T01:48:50.630Z,296
2023-04-25T01:49:22.572Z,315
2023-04-25T01:49:54.579Z,298
2023-04-25T01:50:27.069Z,320
2023-04-25T01:50:58.509Z,264
2023-04-25T01:51:30.581Z,344
2023-04-25T01:52:03.008Z,248
2023-04-25T01:52:34.187Z,306
2023-04-25T01:52:50.651Z,324
2023-04-25T01:53:22.324Z,279
2023-04-25T01:53:38.452Z,283
2023-04-25T01:54:10.338Z,268
2023-04-25T01:54:42.294Z,285
2023-04-25T01:55:14.548Z,323
2023-04-25T01:55:46.264Z,297
2023-04-25T01:56:18.263Z,359
2023-04-25T01:56:50.304Z,326
2023-04-25T01:57:06.713Z,315
2023-04-25T01:57:39.004Z,347
2023-04-25T01:58:22.167Z,347
2023-04-25T01:58:54.330Z,346
2023-04-25T01:59:26.075Z,271
2023-04-25T01:59:58.149Z,280
2023-04-25T02:00:30.513Z,329
2023-04-25T02:01:02.847Z,326
2023-04-25T02:01:34.074Z,293
2023-04-25T02:02:06.039Z,293
2023-04-25T02:02:38.371Z,293
2023-04-25T02:03:10.313Z,293
2023-04-25T02:03:42.196Z,293
2023-04-25T02:04:14.102Z,293
2023-04-25T02:04:46.028Z,293
2023-04-25T02:05:18.291Z,298
2023-04-25T02:05:49.828Z,299
2023-04-25T02:06:06.097Z,299
2023-04-25T02:06:49.886Z,300
2023-04-25T02:07:21.786Z,299
2023-04-25T02:07:54.009Z,299
2023-04-25T02:08:25.583Z,299
2023-04-25T02:08:57.758Z,342
2023-04-25T02:09:29.883Z,332
2023-04-25T02:10:02.646Z,326
2023-04-25T02:10:33.507Z,312
2023-04-25T02:10:49.902Z,313
2023-04-25T02:11:21.516Z,317
2023-04-25T02:11:37.600Z,317
2023-04-25T02:12:09.743Z,316
2023-04-25T02:12:41.621Z,317
2023-04-25T02:13:13.485Z,312
2023-04-25T02:13:45.446Z,308
2023-04-25T02:14:17.622Z,303
2023-04-25T02:14:49.498Z,290
2023-04-25T02:15:06.889Z,290
2023-04-25T02:15:37.391Z,290
2023-04-25T02:16:21.608Z,290
2023-04-25T02:16:53.727Z,303
2023-04-25T02:17:25.464Z,290
2023-04-25T02:17:57.459Z,290
2023-04-25T02:18:29.821Z,290
2023-04-25T02:19:01.820Z,290
2023-04-25T02:19:33.249Z,290
2023-04-25T02:19:49.545Z,290
2023-04-25T02:20:33.495Z,290
2023-04-25T02:21:05.316Z,290
2023-04-25T02:21:37.261Z,290
2023-04-25T02:22:09.249Z,290
2023-04-25T02:22:41.060Z,290
2023-04-25T02:23:13.236Z,290
2023-04-25T02:23:45.164Z,289
2023-04-25T02:24:16.916Z,289
2023-04-25T02:24:49.006Z,289
2023-04-25T02:25:21.436Z,289
2023-04-25T02:25:53.062Z,289
2023-04-25T02:26:24.896Z,289
2023-04-25T02:26:57.046Z,290
2023-04-25T02:27:28.918Z,290
2023-04-25T02:28:01.179Z,290
2023-04-25T02:28:32.911Z,289
2023-04-25T02:29:04.850Z,290
2023-04-25T02:29:36.886Z,290
2023-04-25T02:30:13.168Z,290
2023-04-25T02:30:40.772Z,290
2023-04-25T02:31:12.759Z,290
2023-04-25T02:31:44.792Z,290
2023-04-25T02:32:16.849Z,290
2023-04-25T02:32:48.584Z,291
2023-04-25T02:33:04.909Z,290
2023-04-25T02:33:36.804Z,290
2023-04-25T02:34:20.838Z,290
2023-04-25T02:34:52.734Z,290
2023-04-25T02:35:26.029Z,303
2023-04-25T02:35:56.858Z,289
2023-04-25T02:36:28.882Z,303
2023-04-25T02:37:00.707Z,303
2023-04-25T02:37:32.455Z,303
2023-04-25T02:37:48.558Z,289
2023-04-25T02:38:32.411Z,293
2023-04-25T02:39:04.833Z,293
2023-04-25T02:39:36.530Z,293
2023-04-25T02:40:08.621Z,293
2023-04-25T02:40:40.425Z,293
2023-04-25T02:41:12.477Z,293
2023-04-25T02:41:44.433Z,293
2023-04-25T02:42:16.233Z,289
2023-04-25T02:42:48.281Z,311
2023-04-25T02:43:04.825Z,311
2023-04-25T02:43:48.678Z,312
2023-04-25T02:44:20.135Z,310
2023-04-25T02:44:36.309Z,306
2023-04-25T02:45:10.365Z,306
2023-04-25T02:45:52.262Z,306
2023-04-25T02:46:37.706Z,295
2023-04-25T02:46:56.133Z,313
2023-04-25T02:47:28.200Z,318
2023-04-25T02:48:00.314Z,322
2023-04-25T02:48:32.115Z,320
2023-04-25T02:49:04.174Z,316
2023-04-25T02:49:20.233Z,306
2023-04-25T02:50:04.824Z,304
2023-04-25T02:50:20.198Z,304
2023-04-25T02:51:04.215Z,317
2023-04-25T02:51:36.104Z,317
2023-04-25T02:52:07.854Z,317
2023-04-25T02:52:39.865Z,316
2023-04-25T02:53:12.018Z,316
2023-04-25T02:53:43.823Z,313
2023-04-25T02:54:15.722Z,317
2023-04-25T02:54:47.820Z,317
2023-04-25T02:55:05.213Z,316
2023-04-25T02:55:35.703Z,317
2023-04-25T02:56:19.822Z,317
2023-04-25T02:56:51.609Z,317
2023-04-25T02:57:23.774Z,317
2023-04-25T02:57:55.685Z,322
2023-04-25T02:58:27.808Z,321
2023-04-25T02:58:59.633Z,322
2023-04-25T02:59:31.665Z,323
2023-04-25T03:00:11.396Z,322
2023-04-25T03:00:35.641Z,322
2023-04-25T03:01:07.658Z,322
2023-04-25T03:01:39.631Z,323
2023-04-25T03:02:11.416Z,325
2023-04-25T03:02:43.730Z,323
2023-04-25T03:03:15.419Z,323
2023-04-25T03:03:47.481Z,322
2023-04-25T03:04:05.157Z,322
2023-04-25T03:04:47.590Z,322
2023-04-25T03:05:19.770Z,322
2023-04-25T03:05:51.317Z,322
2023-04-25T03:06:23.249Z,320
2023-04-25T03:06:55.342Z,315
2023-04-25T03:07:27.514Z,301
2023-04-25T03:07:59.307Z,301
2023-04-25T03:08:31.133Z,301
2023-04-25T03:09:03.848Z,301
2023-04-25T03:09:35.239Z,301
2023-04-25T03:10:07.367Z,301
2023-04-25T03:10:39.246Z,301
2023-04-25T03:11:11.291Z,303
2023-04-25T03:11:43.189Z,307
2023-04-25T03:12:14.976Z,311
2023-04-25T03:12:47.023Z,312
2023-04-25T03:13:04.111Z,312
2023-04-25T03:13:34.959Z,323
2023-04-25T03:14:19.113Z,308
2023-04-25T03:14:50.809Z,276
2023-04-25T03:15:23.426Z,276
2023-04-25T03:15:54.911Z,276
2023-04-25T03:16:27.052Z,276
2023-04-25T03:16:59.096Z,276
2023-04-25T03:17:30.947Z,275
2023-04-25T03:17:47.079Z,266
2023-04-25T03:18:30.919Z,262
2023-04-25T03:19:03.927Z,267
2023-04-25T03:19:34.779Z,269
2023-04-25T03:20:08.380Z,274
2023-04-25T03:20:38.904Z,274
2023-04-25T03:21:10.997Z,274
2023-04-25T03:21:42.723Z,272
2023-04-25T03:22:14.633Z,273
2023-04-25T03:22:46.789Z,273
2023-04-25T03:23:18.747Z,273
2023-04-25T03:23:50.951Z,282
2023-04-25T03:24:22.706Z,283
2023-04-25T03:24:54.719Z,283
2023-04-25T03:25:29.034Z,283
2023-04-25T03:25:58.416Z,283
2023-04-25T03:26:30.576Z,283
2023-04-25T03:26:46.730Z,283
2023-04-25T03:27:18.439Z,275
2023-04-25T03:27:34.579Z,285
2023-04-25T03:28:06.444Z,290
2023-04-25T03:28:38.405Z,305
2023-04-25T03:29:10.477Z,305
2023-04-25T03:29:42.567Z,300
2023-04-25T03:30:15.219Z,301
2023-04-25T03:30:46.325Z,298
2023-04-25T03:31:03.754Z,290
2023-04-25T03:31:34.368Z,294
2023-04-25T03:32:18.482Z,295
2023-04-25T03:32:50.299Z,291
2023-04-25T03:33:06.465Z,288
2023-04-25T03:33:38.158Z,288
2023-04-25T03:34:22.288Z,297
2023-04-25T03:34:54.385Z,295
2023-04-25T03:35:26.401Z,295
2023-04-25T03:35:58.196Z,295
2023-04-25T03:36:30.326Z,295
2023-04-25T03:37:02.921Z,295
2023-04-25T03:37:33.997Z,295
2023-04-25T03:38:05.978Z,295
2023-04-25T03:38:38.133Z,295
2023-04-25T03:39:10.039Z,295
2023-04-25T03:39:41.885Z,295
2023-04-25T03:40:14.152Z,295
2023-04-25T03:40:46.029Z,297
2023-04-25T03:41:17.886Z,311
2023-04-25T03:41:49.767Z,293
2023-04-25T03:42:21.934Z,293
2023-04-25T03:42:53.901Z,293
2023-04-25T03:43:26.074Z,293
2023-04-25T03:43:57.725Z,293
2023-04-25T03:44:29.737Z,293
2023-04-25T03:45:04.481Z,293
2023-04-25T03:45:33.936Z,293
2023-04-25T03:46:05.646Z,293
2023-04-25T03:46:37.663Z,293
2023-04-25T03:47:09.690Z,292
2023-04-25T03:47:41.853Z,293
2023-04-25T03:48:13.600Z,293
2023-04-25T03:48:45.561Z,293
2023-04-25T03:49:19.358Z,293
2023-04-25T03:49:49.593Z,292
2023-04-25T03:50:21.888Z,293
2023-04-25T03:50:53.568Z,293
2023-04-25T03:51:25.465Z,293
2023-04-25T03:51:57.626Z,296
2023-04-25T03:52:29.241Z,307
2023-04-25T03:52:45.581Z,307
2023-04-25T03:53:29.308Z,307
2023-04-25T03:54:02.033Z,303
2023-04-25T03:54:33.268Z,307
2023-04-25T03:55:05.759Z,307
2023-04-25T03:55:37.315Z,316
2023-04-25T03:56:09.296Z,316
2023-04-25T03:56:41.421Z,316
2023-04-25T03:57:13.232Z,316
2023-04-25T03:57:45.137Z,316
2023-04-25T03:58:01.804Z,316
2023-04-25T03:58:45.210Z,306
2023-04-25T03:59:17.382Z,306
2023-04-25T03:59:48.941Z,306
2023-04-25T04:00:21.573Z,306
2023-04-25T04:00:53.155Z,306
2023-04-25T04:01:25.218Z,306
2023-04-25T04:01:57.044Z,306
2023-04-25T04:02:29.037Z,306
2023-04-25T04:02:45.666Z,306
2023-04-25T04:03:17.155Z,306
2023-04-25T04:03:33.295Z,306
2023-04-25T04:04:05.546Z,306
2023-04-25T04:04:37.219Z,306
2023-04-25T04:05:09.152Z,306
2023-04-25T04:05:40.980Z,306
2023-04-25T04:06:12.703Z,306
2023-04-25T04:06:44.895Z,306
2023-04-25T04:07:01.020Z,306
2023-04-25T04:07:32.640Z,312
2023-04-25T04:08:16.897Z,311
2023-04-25T04:08:48.705Z,311
2023-04-25T04:09:21.241Z,311
2023-04-25T04:09:52.632Z,311
2023-04-25T04:10:25.099Z,311
2023-04-25T04:10:56.614Z,311
2023-04-25T04:11:28.571Z,312
2023-04-25T04:12:00.657Z,312
2023-04-25T04:12:32.609Z,311
2023-04-25T04:13:04.927Z,311
2023-04-25T04:13:20.945Z,311
2023-04-25T04:13:52.954Z,311
2023-04-25T04:14:36.493Z,311
2023-04-25T04:15:10.429Z,311
2023-04-25T04:15:40.480Z,306
2023-04-25T04:16:12.521Z,306
2023-04-25T04:16:44.450Z,306
2023-04-25T04:17:16.698Z,316
2023-04-25T04:17:48.275Z,317
2023-04-25T04:18:20.573Z,316
2023-04-25T04:18:52.317Z,317
2023-04-25T04:19:24.433Z,316
2023-04-25T04:19:56.334Z,318
2023-04-25T04:20:29.495Z,317
2023-04-25T04:20:44.666Z,306
2023-04-25T04:21:16.388Z,317
2023-04-25T04:21:32.441Z,308
2023-04-25T04:22:04.616Z,295
2023-04-25T04:22:36.245Z,293
2023-04-25T04:23:08.520Z,292
2023-04-25T04:23:40.683Z,284
2023-04-25T04:24:12.260Z,282
2023-04-25T04:24:44.209Z,285
2023-04-25T04:25:00.722Z,280
2023-04-25T04:25:32.239Z,269
2023-04-25T04:26:16.285Z,256
2023-04-25T04:26:48.067Z,256
2023-04-25T04:27:20.230Z,256
2023-04-25T04:27:52.256Z,253
2023-04-25T04:28:24.296Z,253
2023-04-25T04:28:56.037Z,253
2023-04-25T04:29:28.106Z,253
2023-04-25T04:29:44.170Z,253
2023-04-25T04:30:28.433Z,253
2023-04-25T04:31:01.791Z,253
2023-04-25T04:31:31.914Z,253
2023-04-25T04:32:04.402Z,279
2023-04-25T04:32:36.097Z,279
2023-04-25T04:33:08.397Z,279
2023-04-25T04:33:39.901Z,279
2023-04-25T04:34:12.010Z,279
2023-04-25T04:34:43.900Z,279
2023-04-25T04:35:16.104Z,279
2023-04-25T04:35:47.858Z,279
2023-04-25T04:36:19.800Z,279
2023-04-25T04:36:51.678Z,279
2023-04-25T04:37:23.846Z,277
2023-04-25T04:37:55.678Z,269
2023-04-25T04:38:27.761Z,269
2023-04-25T04:38:43.987Z,269
2023-04-25T04:39:15.600Z,269
2023-04-25T04:39:31.818Z,270
2023-04-25T04:40:05.839Z,271
2023-04-25T04:40:35.579Z,272
2023-04-25T04:41:07.586Z,288
2023-04-25T04:41:39.572Z,288
2023-04-25T04:42:11.451Z,288
2023-04-25T04:42:43.469Z,288
2023-04-25T04:42:59.503Z,288
2023-04-25T04:43:31.423Z,288
2023-04-25T04:44:15.542Z,288
2023-04-25T04:44:47.544Z,288
2023-04-25T04:45:21.521Z,288
2023-04-25T04:45:51.473Z,288
2023-04-25T04:46:23.525Z,288
2023-04-25T04:46:55.418Z,288
2023-04-25T04:47:27.435Z,288
2023-04-25T04:47:43.479Z,288
2023-04-25T04:48:27.273Z,288
2023-04-25T04:48:59.310Z,288
2023-04-25T04:49:31.111Z,288
2023-04-25T04:50:04.069Z,288
2023-04-25T04:50:35.105Z,290
2023-04-25T04:51:07.141Z,312
2023-04-25T04:51:39.127Z,322
2023-04-25T04:52:11.192Z,322
2023-04-25T04:52:43.334Z,316
2023-04-25T04:53:15.149Z,315
2023-04-25T04:53:47.070Z,304
2023-04-25T04:54:19.601Z,304
2023-04-25T04:54:50.997Z,304
2023-04-25T04:55:25.562Z,309
2023-04-25T04:55:54.865Z,309
2023-04-25T04:56:26.888Z,309
2023-04-25T04:56:43.202Z,309
2023-04-25T04:57:15.109Z,309
2023-04-25T04:57:31.105Z,309
2023-04-25T04:58:03.730Z,309
2023-04-25T04:58:34.764Z,309
2023-04-25T04:59:06.710Z,309
2023-04-25T04:59:38.872Z,309
2023-04-25T05:00:12.573Z,309
2023-04-25T05:00:42.630Z,309
2023-04-25T05:01:00.354Z,309
2023-04-25T05:01:30.675Z,309
2023-04-25T05:02:14.870Z,309
2023-04-25T05:02:47.090Z,305
2023-04-25T05:03:18.755Z,304
2023-04-25T05:03:51.153Z,304
2023-04-25T05:04:22.908Z,304
2023-04-25T05:04:54.824Z,298
2023-04-25T05:05:28.373Z,287
2023-04-25T05:05:42.662Z,287
2023-04-25T05:06:26.541Z,288
2023-04-25T05:06:58.571Z,288
2023-04-25T05:07:30.440Z,288
2023-04-25T05:08:03.053Z,288
2023-04-25T05:08:18.615Z,288
2023-04-25T05:08:50.463Z,287
2023-04-25T05:09:34.347Z,287
2023-04-25T05:10:08.408Z,288
2023-04-25T05:10:38.422Z,285
2023-04-25T05:11:10.600Z,285
2023-04-25T05:11:42.607Z,285
2023-04-25T05:12:14.339Z,285
2023-04-25T05:12:30.501Z,285
2023-04-25T05:13:03.215Z,285
2023-04-25T05:13:46.251Z,285
2023-04-25T05:14:18.224Z,285
2023-04-25T05:14:50.040Z,285
2023-04-25T05:15:23.454Z,285
2023-04-25T05:15:54.244Z,285
2023-04-25T05:16:26.337Z,285
2023-04-25T05:16:58.127Z,285
2023-04-25T05:17:14.233Z,285
2023-04-25T05:17:58.064Z,285
2023-04-25T05:18:30.203Z,285
2023-04-25T05:19:03.097Z,285
2023-04-25T05:19:33.888Z,285
2023-04-25T05:20:06.218Z,285
2023-04-25T05:20:38.188Z,285
2023-04-25T05:21:10.068Z,285
2023-04-25T05:21:41.965Z,285
2023-04-25T05:21:57.938Z,285
2023-04-25T05:22:29.796Z,285
2023-04-25T05:23:14.033Z,285
2023-04-25T05:23:45.742Z,285
2023-04-25T05:24:19.517Z,285
2023-04-25T05:24:49.711Z,285
2023-04-25T05:25:22.138Z,285
2023-04-25T05:25:53.552Z,285
2023-04-25T05:26:25.709Z,285
2023-04-25T05:26:57.764Z,285
2023-04-25T05:27:29.635Z,285
2023-04-25T05:28:02.366Z,285
2023-04-25T05:28:33.551Z,285
2023-04-25T05:29:05.653Z,285
2023-04-25T05:29:37.729Z,285
2023-04-25T05:30:12.779Z,285
2023-04-25T05:30:41.562Z,286
2023-04-25T05:30:58.029Z,286
2023-04-25T05:31:41.518Z,286
2023-04-25T05:32:13.592Z,286
2023-04-25T05:32:45.620Z,286
2023-04-25T05:33:17.357Z,285
2023-04-25T05:33:49.337Z,285
2023-04-25T05:34:21.641Z,285
2023-04-25T05:34:53.640Z,285
2023-04-25T05:35:27.485Z,285
2023-04-25T05:35:41.654Z,285
2023-04-25T05:36:13.220Z,285
2023-04-25T05:36:29.267Z,285
2023-04-25T05:37:01.748Z,285
2023-04-25T05:37:33.220Z,285
2023-04-25T05:38:05.474Z,282
2023-04-25T05:38:37.192Z,282
2023-04-25T05:39:09.338Z,283
2023-04-25T05:39:41.172Z,283
2023-04-25T05:39:57.392Z,282
2023-04-25T05:40:31.191Z,282
2023-04-25T05:41:13.747Z,283
2023-04-25T05:41:45.131Z,283
2023-04-25T05:42:17.012Z,283
2023-04-25T05:42:48.973Z,283
2023-04-25T05:43:21.088Z,283
2023-04-25T05:43:57.151Z,283
2023-04-25T05:44:24.910Z,283
2023-04-25T05:44:41.165Z,283
2023-04-25T05:45:25.359Z,283
2023-04-25T05:45:57.069Z,283
2023-04-25T05:46:28.837Z,274
2023-04-25T05:47:00.992Z,274
2023-04-25T05:47:32.786Z,274
2023-04-25T05:48:05.102Z,274
2023-04-25T05:48:36.822Z,274
2023-04-25T05:49:08.661Z,274
2023-04-25T05:49:40.872Z,279
2023-04-25T05:50:14.912Z,285
2023-04-25T05:50:44.622Z,288
2023-04-25T05:51:16.544Z,288
2023-04-25T05:51:48.611Z,288
2023-04-25T05:52:20.663Z,288
2023-04-25T05:52:52.398Z,288
2023-04-25T05:53:24.590Z,290
2023-04-25T05:53:40.927Z,293
2023-04-25T05:54:12.532Z,292
2023-04-25T05:54:28.650Z,292
2023-04-25T05:55:03.794Z,293
2023-04-25T05:55:32.470Z,294
2023-04-25T05:56:06.716Z,294
2023-04-25T05:56:36.508Z,296
2023-04-25T05:57:08.345Z,292
2023-04-25T05:57:40.389Z,297
2023-04-25T05:58:12.515Z,298
2023-04-25T05:58:44.418Z,295
2023-04-25T05:59:16.154Z,298
2023-04-25T05:59:48.166Z,292
2023-04-25T06:00:21.125Z,288
2023-04-25T06:00:52.127Z,286
2023-04-25T06:01:24.362Z,288
2023-04-25T06:01:40.522Z,285
2023-04-25T06:02:24.431Z,285
2023-04-25T06:02:56.470Z,337
2023-04-25T06:03:28.234Z,320
2023-04-25T06:04:00.272Z,284
2023-04-25T06:04:32.323Z,284
2023-04-25T06:05:05.309Z,325
2023-04-25T06:05:35.930Z,304
2023-04-25T06:06:08.344Z,282
2023-04-25T06:06:40.154Z,254
2023-04-25T06:07:12.038Z,292
2023-04-25T06:07:43.865Z,343
2023-04-25T06:08:16.042Z,2
2023-04-25T06:08:47.967Z,353
2023-04-25T06:09:19.912Z,341
2023-04-25T06:09:51.882Z,317
2023-04-25T06:10:26.004Z,320
2023-04-25T06:10:56.037Z,321
2023-04-25T06:11:27.936Z,321
2023-04-25T06:11:59.650Z,302
2023-04-25T06:12:32.025Z,278
2023-04-25T06:13:04.351Z,278
2023-04-25T06:13:35.745Z,298
2023-04-25T06:14:07.681Z,286
2023-04-25T06:14:39.646Z,303
2023-04-25T06:14:55.856Z,255
2023-04-25T06:15:33.261Z,257
2023-04-25T06:16:11.885Z,257
2023-04-25T06:16:43.474Z,258
2023-04-25T06:17:15.468Z,233
2023-04-25T06:17:47.632Z,224
2023-04-25T06:18:19.572Z,224
2023-04-25T06:18:51.581Z,224
2023-04-25T06:19:23.529Z,224
2023-04-25T06:19:55.405Z,224
2023-04-25T06:20:27.769Z,224
2023-04-25T06:20:59.376Z,224
2023-04-25T06:21:34.127Z,224
2023-04-25T06:22:04.088Z,223
2023-04-25T06:22:35.385Z,224
2023-04-25T06:23:07.245Z,223
2023-04-25T06:23:39.315Z,223
2023-04-25T06:24:11.506Z,224
2023-04-25T06:24:43.064Z,224
2023-04-25T06:25:29.044Z,224
2023-04-25T06:25:47.332Z,224
2023-04-25T06:26:19.399Z,224
2023-04-25T06:26:53.246Z,224
2023-04-25T06:27:23.127Z,223
2023-04-25T06:27:55.186Z,223
2023-04-25T06:28:27.300Z,222
2023-04-25T06:28:59.007Z,222
2023-04-25T06:29:31.185Z,222
2023-04-25T06:30:06.041Z,222
2023-04-25T06:30:35.124Z,222
2023-04-25T06:31:06.934Z,222
2023-04-25T06:31:39.059Z,222
2023-04-25T06:32:11.112Z,222
2023-04-25T06:32:43.034Z,222
2023-04-25T06:33:14.923Z,222
2023-04-25T06:33:46.966Z,221
2023-04-25T06:34:18.789Z,249
2023-04-25T06:34:50.857Z,250
2023-04-25T06:35:24.765Z,228
2023-04-25T06:35:38.957Z,227
2023-04-25T06:36:22.627Z,239
2023-04-25T06:36:54.883Z,244
2023-04-25T06:37:27.043Z,274
2023-04-25T06:37:58.505Z,260
2023-04-25T06:38:30.625Z,250
2023-04-25T06:39:03.438Z,331
2023-04-25T06:39:34.608Z,244
2023-04-25T06:40:08.592Z,245
2023-04-25T06:40:38.698Z,241
2023-04-25T06:41:10.739Z,254
2023-04-25T06:41:42.878Z,251
2023-04-25T06:42:14.483Z,244
2023-04-25T06:42:46.513Z,22
2023-04-25T06:43:18.506Z,0
2023-04-25T06:43:50.755Z,345
2023-04-25T06:44:22.415Z,44
2023-04-25T06:44:38.599Z,40
2023-04-25T06:45:17.815Z,19
2023-04-25T06:45:27.263Z,276
2023-04-25T06:45:58.564Z,276
2023-04-25T06:46:30.441Z,349
2023-04-25T06:47:03.080Z,322
2023-04-25T06:47:34.395Z,286
2023-04-25T06:48:06.471Z,237
2023-04-25T06:48:38.180Z,344
2023-04-25T06:48:54.297Z,276
2023-04-25T06:49:26.566Z,259
2023-04-25T06:50:12.637Z,264
2023-04-25T06:50:42.418Z,254
2023-04-25T06:51:13.987Z,330
2023-04-25T06:51:46.195Z,298
2023-04-25T06:52:18.373Z,284
2023-04-25T06:52:50.177Z,247
2023-04-25T06:53:24.081Z,265
2023-04-25T06:53:38.088Z,282
2023-04-25T06:54:22.180Z,283
2023-04-25T06:54:54.227Z,280
2023-04-25T06:55:26.483Z,278
2023-04-25T06:55:57.941Z,255
2023-04-25T06:56:29.907Z,254
2023-04-25T06:57:02.614Z,254
2023-04-25T06:57:34.053Z,255
2023-04-25T06:58:05.886Z,248
2023-04-25T06:58:37.874Z,248
2023-04-25T06:59:10.065Z,338
2023-04-25T06:59:42.099Z,331
2023-04-25T07:00:14.380Z,349
2023-04-25T07:00:45.844Z,349
2023-04-25T07:01:17.864Z,260
2023-04-25T07:01:49.744Z,241
2023-04-25T07:02:21.692Z,245
2023-04-25T07:02:37.840Z,254
2023-04-25T07:03:09.847Z,260
2023-04-25T07:03:25.880Z,257
2023-04-25T07:03:57.954Z,270
2023-04-25T07:04:29.829Z,269
2023-04-25T07:05:04.497Z,269
2023-04-25T07:05:33.525Z,268
2023-04-25T07:06:05.674Z,269
2023-04-25T07:06:37.441Z,241
2023-04-25T07:06:53.792Z,236
2023-04-25T07:07:25.657Z,252
2023-04-25T07:08:09.584Z,269
2023-04-25T07:08:41.831Z,271